Aviation Digital Data Service (ADDS)

Output produced by METARs form (1721 UTC 09 December 2016)
found at http://aviationweather.gov/adds/metars/
 
KDAG 091650Z AUTO 11004KT 10SM CLR 08/M11 A3029 RMK AO2 SLP257 T00831111
KDAG 091123Z 0912/1012 27007KT P6SM BKN250
       
KEDW 091658Z 22006KT 95SM FEW050 SCT080 BKN200 OVC300 13/09 A3025 RMK AO2A SLP239 T01250093
TAF KEDW 091002Z 0910/1016 23009KT 9999 SCT050 BKN250 QNH3019INS 
     BECMG 0917/0918 27012G18KT 9999 SCT050 BKN250 QNH3014INS 
     BECMG 1002/1003 VRB06KT 9999 FEW150 BKN250 QNH3011INS 
     BECMG 1014/1015 25009KT 9999 FEW080 SCT150 QNH3012INS TX18/0922Z TN02/0915Z
       
KVCV 091715Z AUTO 26007KT 10SM SCT090 SCT110 14/07 A3028 RMK AO2
KONT 091653Z 00000KT 6SM HZ SCT200 OVC260 12/07 A3027 RMK AO2 SLP250 T01220067
KONT 091720Z 0918/1024 VRB06KT P6SM FEW010 BKN200 
     TEMPO 0918/0920 6SM HZ 
     FM100600 VRB05KT P6SM BKN010 BKN200 
     FM101900 VRB06KT P6SM SCT015 BKN200
       
KSNA 091653Z 00000KT 10SM FEW040 FEW250 OVC280 14/10 A3028 RMK AO2 SLP253 T01390100
KSNA 091720Z 0918/1018 23006KT P6SM SCT015 BKN200 
     FM100100 VRB04KT P6SM BKN015 BKN200
       
KSAN 091651Z 00000KT 10SM SCT015 BKN200 BKN250 14/09 A3029 RMK AO2 SLP257 T01390094
KSAN 091720Z 0918/1024 VRB06KT P6SM SCT015 BKN200 
     FM092000 30010KT P6SM SCT015 BKN200 
     FM100200 VRB06KT P6SM SCT015 BKN200 
     FM100300 VRB04KT P6SM OVC015 
     FM102000 27007KT P6SM SCT020 BKN200
       
KNID 091656Z 00000KT 10SM FEW100 BKN230 BKN300 04/M07 A3028 RMK AO2 SLP263 T00441067 $
TAF KNID 0915/1015 VRB05KT 9999 FEW080 SCT250 BKN300 QNH3015INS T16/0922Z T03/1013Z
       
KNXP 091656Z 31003KT 10SM SCT220 BKN250 07/M09 A3035 RMK AO2 SLP265 FIRST T00721089 $
TAF KNXP 0915/1015 VRB06KT 9999 SCT200 QNH3013INS 
     BECMG 0920/0922 16007KT 9999 SCT200 QNH3008INS 
     BECMG 1002/1004 VRB06KT 9999 SCT200 QNH3010INS T20/0922Z T06/1014Z
       
KPSP 091653Z 00000KT 10SM CLR 14/03 A3028 RMK AO2 SLP254 T01390028
KPSP 091720Z 0918/1018 VRB06KT P6SM BKN150
       
KLAX 091653Z 12004KT 8SM FEW025 SCT085 BKN160 BKN250 14/10 A3027 RMK AO2 SLP249 T01440100
KLAX 091412Z 0914/1018 VRB03KT P6SM SCT020 BKN080 
     FM091800 25007KT P6SM SCT025 BKN050 
     FM100300 VRB03KT P6SM BKN040 
     FM100900 VRB03KT P6SM OVC025
       
KCNO 091653Z 00000KT 7SM FEW050 BKN200 11/07 A3029 RMK AO2 SLP257 T01060072
KSMO 091651Z 00000KT 10SM CLR 14/11 A3027 RMK AO2 SLP250 T01390106
KSMO 091411Z 0914/1012 VRB03KT P6SM SCT025 BKN080 
     FM091800 23007KT P6SM SCT025 BKN050 
     FM100300 VRB03KT P6SM BKN040 
     FM100900 VRB03KT P6SM OVC025
       
KLGB 091653Z 00000KT 5SM HZ BKN020 13/09 A3028 RMK AO2 SLP251 T01280094 $
KLGB 091412Z 0914/1012 VRB03KT P6SM SCT020 BKN080 
     FM091800 21007KT P6SM SCT025 BKN050 
     FM100000 29008KT P6SM BKN050 
     FM100400 VRB03KT P6SM BKN040 
     FM100900 VRB03KT P6SM OVC025
       
KVNY 091651Z 00000KT 10SM CLR 14/11 A3026 RMK AO2 SLP243 T01390106
KVNY 091413Z 0914/1012 VRB03KT P6SM SCT025 BKN080 
     FM091800 13007KT P6SM SCT025 BKN050 
     FM100300 VRB03KT P6SM BKN040 
     FM100900 VRB03KT P6SM OVC025
       
KBUR 091653Z 23003KT 10SM CLR 13/07 A3026 RMK AO2 SLP239 T01330067
KBUR 091412Z 0914/1012 VRB03KT P6SM SCT025 BKN080 
     FM091800 17007KT P6SM SCT025 BKN050 
     FM100300 VRB03KT P6SM BKN040 
     FM100900 VRB03KT P6SM OVC025
       
KBFL 091654Z 14003KT 10SM OVC030 16/13 A3026 RMK AO2 SLP245 T01610133
KBFL 091121Z 0912/1012 10005KT 5SM BR OVC050 
     FM092100 31006KT 6SM HZ SCT050 OVC100 
     FM100300 VRB04KT P6SM SCT050 OVC100
       
KPMD 091653Z AUTO 00000KT 10SM BKN065 14/09 A3028 RMK AO2 SLP245 T01440089
KPMD 091136Z 0912/1012 24007KT P6SM BKN060 
     FM092000 27010KT P6SM SCT060 BKN150
       
KOXR 091651Z 03004KT 8SM OVC014 16/08 A3027 RMK AO2 SLP249 T01560083
KOXR 091410Z 0914/1012 VRB03KT 6SM BR VCSH OVC011 
     FM091700 VRB03KT P6SM SCT010 OVC030 
     FM091900 27008KT P6SM SCT015 BKN040 
     FM100300 VRB03KT P6SM OVC030 
     PROB30 1003/1009 -SHRA 
     FM100900 VRB03KT P6SM OVC015
       
KWJF 091656Z 00000KT 10SM BKN070 13/07 A3027 RMK AO2 SLP253 T01280067
KWJF 091136Z 0912/1012 24007KT P6SM BKN060 
     FM092000 27010KT P6SM SCT060 BKN150
       
KCMA 091655Z 00000KT 10SM SCT019 16/11 A3027 RMK AO2 SLP258 T01560111
KCMA 091136Z 0912/1012 VRB03KT 6SM BR VCSH OVC015 
     FM091600 VRB03KT P6SM SCT015 OVC030 
     FM091900 27008KT P6SM SCT015 BKN040 
     FM100300 VRB03KT P6SM OVC030 
     PROB30 1003/1009 -SHRA 
     FM100900 VRB03KT P6SM OVC015
       
KFAT 091710Z 09005KT 10SM FEW008 BKN023 BKN032 14/12 A3028 RMK AO2 MTNS OBSC DSNT N-E-S T01390117
KFAT 091443Z 0915/1012 08006KT P6SM SCT018 OVC050 
     TEMPO 0915/0918 BKN018 
     FM091800 12007KT P6SM VCSH SCT020 OVC050 
     FM100800 09008KT P6SM SCT020 OVC050 
     TEMPO 1008/1012 4SM -RA BR OVC020
       
KEED 091656Z AUTO 36005KT 10SM SCT070 14/M08 A3030 RMK AO2 SLP250 T01441078
KEED 091123Z 0912/1012 VRB05KT P6SM BKN070 BKN250 
     FM092100 VRB05KT P6SM SCT070 BKN250
       
KLSV 091658Z AUTO 00000KT 10SM OVC050 06/M12 A3032 RMK AO2 SLP272 T00581120
TAF KLSV 091500Z 0915/1021 VRB06KT 9999 BKN050 BKN150 QNH3027INS 
     BECMG 0917/0918 05009KT 9999 FEW050 SCT130 QNH3019INS 
     BECMG 1002/1003 VRB06KT 9999 FEW100 FEW180 QNH3011INS TX13/0921Z TN01/0915Z
       
KLAS 091656Z 12003KT 10SM BKN048 OVC220 09/M11 A3031 RMK AO2 SLP263 T00941106
KLAS 091439Z 0915/1012 VRB04KT P6SM BKN045 BKN250 
     FM092100 VRB04KT P6SM SCT045 SCT140 BKN250
       
KHII 091715Z AUTO 30005KT 10SM FEW070 14/M08 A3029 RMK AO2
KIFP 091715Z AUTO 01010KT 10SM BKN070 15/M09 A3030 RMK AO2
KIFP 091431Z 0915/1012 02012KT P6SM BKN070 BKN250 
     FM091800 02006KT P6SM SCT070 BKN250